Time;durP1;ratioP1;P1;durP2;ratioP2;P2;SDS_P1;SDS_P2;PMS_P1;PMS_P2;Temp;Humidity;BMP_temperature;BMP_pressure;BME280_temperature;BME280_humidity;BME280_pressure;Samples;Min_cycle;Max_cycle;Signal;HPM_P1;HPM_P2
2022/04/29 00:00:53;;;;;;;0.10;0.10;;;9.80;99.90;;;9.40;100.00;101083.28;4994140;28;20570;-74
2022/04/29 00:03:22;;;;;;;0.10;0.10;;;9.80;99.90;;;9.31;100.00;101076.03;4975334;28;20209;-75
2022/04/29 00:05:53;;;;;;;0.10;0.10;;;9.80;99.90;;;9.14;100.00;101065.06;4967860;28;20252;-74
2022/04/29 00:08:21;;;;;;;0.20;0.20;;;9.70;99.90;;;9.42;100.00;101108.88;4964591;28;20210;-74
2022/04/29 00:10:50;;;;;;;0.20;0.20;;;9.80;99.90;;;9.58;100.00;101111.03;4967623;28;20665;-75
2022/04/29 00:13:18;;;;;;;0.20;0.20;;;9.80;99.90;;;9.59;100.00;101114.56;4974748;28;20236;-74
2022/04/29 00:15:46;;;;;;;0.10;0.10;;;9.90;99.90;;;9.32;100.00;101108.59;4972293;28;20229;-74
2022/04/29 00:18:14;;;;;;;0.20;0.20;;;9.90;99.90;;;9.38;100.00;101143.97;4971710;28;20209;-74
2022/04/29 00:20:44;;;;;;;0.20;0.20;;;9.90;99.90;;;9.31;100.00;101139.38;4977549;28;20202;-74
2022/04/29 00:23:12;;;;;;;0.20;0.20;;;9.80;99.90;;;9.43;100.00;101144.06;4973649;28;20208;-74
2022/04/29 00:25:40;;;;;;;0.20;0.20;;;9.80;99.90;;;9.59;100.00;101148.88;4964984;28;20232;-73
2022/04/29 00:28:08;;;;;;;0.17;0.17;;;9.80;99.90;;;9.71;100.00;101146.53;4973000;28;20213;-74
2022/04/29 00:30:36;;;;;;;0.20;0.20;;;9.90;99.90;;;9.61;100.00;101118.13;4980871;28;20212;-74
2022/04/29 00:33:06;;;;;;;0.20;0.20;;;9.80;99.90;;;9.63;100.00;101100.56;4984842;28;20243;-74
2022/04/29 00:35:34;;;;;;;0.20;0.20;;;9.80;99.90;;;9.62;100.00;101102.31;4983085;28;20221;-74
2022/04/29 00:38:02;;;;;;;0.10;0.10;;;9.80;99.90;;;9.54;100.00;101103.00;4984015;28;20236;-74
2022/04/29 00:40:31;;;;;;;0.10;0.10;;;9.80;99.90;;;9.46;100.00;101097.53;4969022;28;20585;-74
2022/04/29 00:42:59;;;;;;;0.20;0.20;;;9.80;99.90;;;9.65;100.00;101127.91;4970584;28;20201;-74
2022/04/29 00:45:28;;;;;;;0.20;0.20;;;9.80;99.90;;;9.65;100.00;101121.72;4956813;28;20232;-74
2022/04/29 00:47:56;;;;;;;0.10;0.10;;;9.80;99.90;;;9.69;100.00;101128.88;4986104;28;20672;-74
2022/04/29 00:50:28;;;;;;;0.10;0.10;;;9.80;99.90;;;9.76;100.00;101129.03;4982862;28;20205;-74
2022/04/29 00:52:59;;;;;;;0.20;0.20;;;9.80;99.90;;;9.76;100.00;101117.59;4968415;28;20241;-74
2022/04/29 00:55:30;;;;;;;0.20;0.20;;;9.90;99.90;;;9.87;100.00;101121.38;4972310;28;20221;-74
2022/04/29 00:58:33;;;;;;;0.20;0.20;;;9.90;99.90;;;9.73;100.00;101105.19;4986892;28;20206;-74
2022/04/29 01:01:04;;;;;;;0.10;0.10;;;9.80;99.90;;;9.82;99.35;101112.44;4983660;28;20220;-74
2022/04/29 01:03:37;;;;;;;0.20;0.20;;;9.80;99.90;;;10.03;100.00;101146.38;4983810;28;20208;-75
2022/04/29 01:06:05;;;;;;;0.20;0.20;;;9.80;99.90;;;9.75;99.39;101121.09;4985809;28;20705;-74
2022/04/29 01:08:33;;;;;;;0.20;0.20;;;9.90;99.90;;;9.82;99.37;101117.72;4981695;28;20685;-74
2022/04/29 01:11:01;;;;;;;0.20;0.20;;;9.80;99.90;;;10.02;97.95;101148.13;4968545;28;20209;-74
2022/04/29 01:13:30;;;;;;;0.20;0.20;;;9.90;99.90;;;10.16;97.48;101145.81;4981745;28;20236;-74
2022/04/29 01:15:58;;;;;;;0.20;0.20;;;9.90;99.90;;;10.09;97.18;101133.31;4979570;28;20225;-74
2022/04/29 01:18:27;;;;;;;0.20;0.20;;;10.00;99.90;;;10.13;96.92;101129.88;4968562;28;20220;-74
2022/04/29 01:21:05;;;;;;;0.20;0.20;;;10.00;99.90;;;10.21;96.75;101134.50;4959896;28;20212;-74
2022/04/29 01:23:34;;;;;;;0.20;0.20;;;9.20;99.90;;;10.29;96.34;101144.34;4966638;28;20209;-75
2022/04/29 01:26:04;;;;;;;0.20;0.20;;;10.00;99.90;;;10.26;95.13;101124.91;4976888;28;20233;-74
2022/04/29 01:28:35;;;;;;;0.10;0.10;;;10.00;99.90;;;10.21;95.37;101115.09;4968133;28;20217;-74
2022/04/29 01:31:05;;;;;;;0.10;0.10;;;10.00;99.90;;;10.31;94.98;101124.13;4939580;28;20213;-74
2022/04/29 01:33:35;;;;;;;0.10;0.10;;;10.00;99.90;;;10.29;95.08;101118.81;4970036;28;20244;-74
2022/04/29 01:36:06;;;;;;;0.10;0.10;;;10.10;99.90;;;10.31;95.49;101114.44;4980400;28;20233;-74
2022/04/29 01:38:36;;;;;;;0.20;0.20;;;10.10;99.90;;;10.31;94.70;101116.19;4983725;28;20212;-74
2022/04/29 01:41:05;;;;;;;0.20;0.20;;;10.10;99.90;;;10.34;95.77;101116.25;4971129;28;20209;-74
2022/04/29 01:43:40;;;;;;;0.20;0.20;;;10.10;99.90;;;10.35;95.68;101118.03;4974757;28;20219;-74
2022/04/29 01:46:10;;;;;;;0.20;0.20;;;10.10;99.90;;;10.25;96.20;101109.91;4976418;28;20686;-74
2022/04/29 01:48:45;;;;;;;0.20;0.20;;;10.10;99.90;;;10.23;96.59;101116.91;4972698;28;20216;-74
2022/04/29 01:51:16;;;;;;;0.10;0.10;;;10.10;99.90;;;10.20;97.22;101118.59;4969858;28;20217;-74
2022/04/29 01:53:53;;;;;;;0.20;0.20;;;10.00;99.90;;;10.25;97.63;101135.47;4968951;28;20239;-74
2022/04/29 01:56:32;;;;;;;0.10;0.10;;;10.00;99.90;;;10.16;98.60;101137.88;4954457;28;20240;-74
2022/04/29 01:59:04;;;;;;;0.10;0.10;;;10.00;99.90;;;10.16;98.93;101140.50;4966129;28;20210;-75
2022/04/29 02:01:37;;;;;;;0.20;0.20;;;10.00;99.90;;;10.12;99.44;101150.13;4977364;28;20205;-74
2022/04/29 02:04:06;;;;;;;0.20;0.20;;;10.00;99.90;;;10.13;99.44;101151.91;4965278;28;20221;-74
2022/04/29 02:06:37;;;;;;;0.20;0.20;;;10.00;99.90;;;10.12;100.00;101167.72;4990205;28;20237;-74
2022/04/29 02:09:07;;;;;;;0.20;0.20;;;10.00;99.90;;;10.08;100.00;101163.22;4984198;28;20210;-74
2022/04/29 02:11:36;;;;;;;0.10;0.10;;;9.90;99.90;;;10.10;100.00;101170.34;4983117;28;20678;-74
2022/04/29 02:14:28;;;;;;;0.20;0.20;;;9.90;99.90;;;10.08;100.00;101177.34;4979965;28;20232;-73
2022/04/29 02:16:59;;;;;;;0.20;0.20;;;9.90;99.90;;;10.14;100.00;101185.41;4976532;28;20228;-74
2022/04/29 02:19:28;;;;;;;0.20;0.20;;;9.90;99.90;;;10.16;100.00;101190.72;4988424;28;20666;-74
2022/04/29 02:21:57;;;;;;;0.20;0.20;;;9.90;99.90;;;10.18;100.00;101194.31;4973772;28;20210;-74
2022/04/29 02:24:26;;;;;;;0.10;0.10;;;9.90;99.90;;;10.13;99.83;101190.66;4974557;28;20197;-73
2022/04/29 02:26:55;;;;;;;0.10;0.10;;;10.00;99.90;;;10.10;99.57;101188.84;4985892;28;20236;-74
2022/04/29 02:29:27;;;;;;;0.10;0.10;;;10.00;99.90;;;10.04;100.00;101185.16;4973229;28;20209;-73
2022/04/29 02:31:59;;;;;;;0.10;0.10;;;9.90;99.90;;;9.91;100.00;101169.03;4987684;28;20218;-74
2022/04/29 02:34:28;;;;;;;0.13;0.13;;;9.90;99.90;;;10.01;100.00;101193.03;4985087;28;20229;-74
2022/04/29 02:36:56;;;;;;;0.17;0.17;;;9.90;99.90;;;9.92;100.00;101180.50;4989588;28;20225;-73
2022/04/29 02:39:24;;;;;;;0.80;0.80;;;9.80;99.90;;;9.95;100.00;101183.19;4980276;28;20209;-74
2022/04/29 02:41:54;;;;;;;0.20;0.20;;;9.80;99.90;;;9.93;100.00;101182.28;4991921;28;20206;-74
2022/04/29 02:44:22;;;;;;;0.15;0.15;;;9.80;99.90;;;9.79;100.00;101173.13;4992468;28;20205;-74
2022/04/29 02:47:09;;;;;;;0.10;0.10;;;9.80;99.90;;;9.86;100.00;101182.97;4971847;28;20233;-74
2022/04/29 02:49:43;;;;;;;0.10;0.10;;;9.70;99.90;;;9.75;100.00;101180.09;4974693;28;20209;-73
2022/04/29 02:52:13;;;;;;;0.10;0.10;;;9.70;99.90;;;9.75;100.00;101187.13;4986274;28;20204;-73
2022/04/29 02:54:42;;;;;;;0.10;0.10;;;9.60;99.90;;;9.71;100.00;101188.78;4971676;28;20252;-74
2022/04/29 02:57:39;;;;;;;0.20;0.20;;;9.70;99.90;;;9.66;100.00;101203.63;4970102;28;20194;-74
2022/04/29 03:00:08;;;;;;;0.20;0.20;;;9.60;99.90;;;9.58;100.00;101197.28;4972745;28;20217;-74
2022/04/29 03:02:36;;;;;;;0.20;0.20;;;9.60;99.90;;;9.47;100.00;101198.75;4988234;28;20220;-74
2022/04/29 03:05:06;;;;;;;0.10;0.10;;;9.60;99.90;;;9.47;100.00;101198.75;4974625;28;20639;-74
2022/04/29 03:07:35;;;;;;;0.10;0.10;;;9.50;99.90;;;9.51;100.00;101219.09;4986000;28;20209;-74
2022/04/29 03:10:06;;;;;;;0.20;0.20;;;9.50;99.90;;;9.48;100.00;101230.47;4972426;28;20674;-75
2022/04/29 03:12:38;;;;;;;0.20;0.20;;;9.50;99.90;;;9.47;100.00;101228.69;4972476;28;20209;-74
2022/04/29 03:15:25;;;;;;;0.20;0.20;;;9.40;99.90;;;9.43;100.00;101228.56;4986744;28;20237;-73
2022/04/29 03:20:46;;;;;;;0.20;0.20;;;9.30;99.90;;;9.43;100.00;101236.47;4966570;28;20202;-74
2022/04/29 03:23:16;;;;;;;0.20;0.20;;;9.70;99.90;;;9.41;100.00;101243.47;4975697;28;20218;-73
2022/04/29 03:25:57;;;;;;;0.10;0.10;;;9.30;99.90;;;9.37;100.00;101239.84;4982731;28;20229;-73
2022/04/29 03:28:27;;;;;;;0.20;0.20;;;9.30;99.90;;;9.28;100.00;101242.25;4985629;28;20208;-74
2022/04/29 03:30:58;;;;;;;0.20;0.20;;;9.30;99.90;;;9.21;100.00;101248.22;4975972;28;20190;-73
2022/04/29 03:33:37;;;;;;;0.20;0.20;;;9.30;99.90;;;9.24;100.00;101253.56;4982908;28;20225;-74
2022/04/29 03:36:06;;;;;;;0.20;0.20;;;9.30;99.90;;;9.25;100.00;101268.56;4980859;28;20249;-74
2022/04/29 03:38:38;;;;;;;0.20;0.20;;;9.20;99.90;;;9.28;100.00;101268.63;4967748;28;20205;-74
2022/04/29 03:41:07;;;;;;;0.10;0.10;;;9.20;99.90;;;9.30;100.00;101275.75;4981673;28;20210;-73
2022/04/29 03:43:37;;;;;;;0.20;0.20;;;9.20;99.90;;;9.29;100.00;101275.72;4964900;28;20201;-73
2022/04/29 03:46:10;;;;;;;0.10;0.10;;;9.20;99.90;;;9.27;100.00;101270.38;4972998;28;20236;-73
2022/04/29 03:51:48;;;;;;;0.10;0.10;;;9.20;99.90;;;9.12;100.00;101264.69;4969074;28;20204;-74
2022/04/29 03:54:16;;;;;;;0.10;0.10;;;9.10;99.90;;;9.06;100.00;101267.13;4985929;28;20252;-74
2022/04/29 03:56:52;;;;;;;0.10;0.10;;;9.10;99.90;;;9.00;100.00;101277.50;4978760;28;20220;-73
2022/04/29 03:59:21;;;;;;;0.20;0.20;;;9.10;99.90;;;8.89;100.00;101273.66;4981332;28;20213;-74
2022/04/29 04:01:50;;;;;;;0.20;0.20;;;9.00;99.90;;;8.77;100.00;101271.56;4955694;28;20209;-74
2022/04/29 04:04:19;;;;;;;0.20;0.20;;;9.00;99.90;;;8.70;100.00;101273.97;4967855;28;20213;-74
2022/04/29 04:06:50;;;;;;;0.20;0.20;;;9.00;99.90;;;8.77;100.00;101303.19;4965267;28;20221;-74
2022/04/29 04:09:27;;;;;;;0.20;0.20;;;9.00;99.90;;;8.73;100.00;101313.59;4969846;28;20217;-74
2022/04/29 04:12:02;;;;;;;0.20;0.20;;;8.90;99.90;;;8.71;100.00;101316.19;4971817;28;20224;-75
2022/04/29 04:15:00;;;;;;;0.10;0.10;;;8.90;99.90;;;8.70;100.00;101326.69;4967697;28;20238;-74
2022/04/29 04:17:32;;;;;;;0.73;0.73;;;8.90;99.90;;;8.79;100.00;101342.81;4985546;28;20205;-75
2022/04/29 04:20:00;;;;;;;0.10;0.10;;;8.90;99.90;;;8.87;100.00;101344.81;4987919;28;20205;-75
2022/04/29 04:22:35;;;;;;;0.20;0.20;;;8.90;99.90;;;8.82;100.00;101345.53;4969841;28;20654;-75
2022/04/29 04:25:06;;;;;;;0.10;0.10;;;8.90;99.90;;;8.90;100.00;101346.66;4981941;28;20585;-75
2022/04/29 04:27:35;;;;;;;0.20;0.20;;;8.90;99.90;;;8.96;100.00;101353.03;4965225;28;20670;-75
2022/04/29 04:30:05;;;;;;;0.20;0.20;;;8.90;99.90;;;8.93;100.00;101352.03;4988620;28;20217;-75
2022/04/29 04:32:38;;;;;;;0.20;0.20;;;8.90;99.90;;;8.94;100.00;101349.44;4988445;28;20213;-75
2022/04/29 04:35:07;;;;;;;0.10;0.10;;;8.90;99.90;;;9.04;100.00;101362.91;4955697;28;20597;-75
2022/04/29 04:37:36;;;;;;;0.30;0.30;;;9.00;99.90;;;8.95;100.00;101361.78;4955595;28;20210;-76
2022/04/29 04:40:07;;;;;;;0.20;0.20;;;9.00;99.90;;;9.03;100.00;101377.84;4987631;28;20205;-75
2022/04/29 04:42:49;;;;;;;0.10;0.10;;;8.90;99.90;;;9.05;100.00;101378.78;4985674;28;20201;-75
2022/04/29 04:45:32;;;;;;;0.20;0.20;;;8.90;99.90;;;9.08;100.00;101384.16;4987699;28;20240;-75
2022/04/29 04:48:21;;;;;;;0.20;0.20;;;8.90;99.90;;;9.13;100.00;101381.69;4964849;28;20220;-75
2022/04/29 04:51:18;;;;;;;0.20;0.20;;;8.90;99.90;;;9.10;100.00;101392.13;4938498;28;20221;-76
2022/04/29 04:53:51;;;;;;;0.13;0.13;;;9.00;99.90;;;9.16;100.00;101394.97;4978750;28;20205;-75
2022/04/29 04:56:21;;;;;;;0.30;0.30;;;9.00;99.90;;;9.19;100.00;101405.63;4987192;28;20217;-75
2022/04/29 04:58:50;;;;;;;0.10;0.10;;;9.10;99.90;;;9.17;100.00;101410.84;4987087;28;20216;-75
2022/04/29 05:01:19;;;;;;;0.20;0.20;;;9.10;99.90;;;9.27;100.00;101426.13;4983955;28;20205;-77
2022/04/29 05:03:47;;;;;;;0.20;0.20;;;9.20;99.90;;;9.29;100.00;101424.41;4972951;28;20662;-77
2022/04/29 05:06:47;;;;;;;0.20;0.20;;;9.20;99.90;;;9.38;100.00;101431.72;4951844;29;20244;-75
2022/04/29 05:09:16;;;;;;;0.20;0.20;;;9.20;99.90;;;9.41;100.00;101425.63;4976351;28;20214;-75
2022/04/29 05:11:45;;;;;;;0.20;0.20;;;9.30;99.90;;;9.50;100.00;101432.09;4950388;28;20224;-75
2022/04/29 05:14:50;;;;;;;0.20;0.20;;;9.30;99.90;;;9.64;100.00;101443.03;4964629;28;20232;-75
2022/04/29 05:17:18;;;;;;;0.20;0.20;;;9.40;99.90;;;9.76;100.00;101445.13;4982749;28;20232;-74
2022/04/29 05:19:49;;;;;;;0.20;0.20;;;9.40;99.90;;;9.86;100.00;101450.72;4971022;28;20213;-75
2022/04/29 05:22:22;;;;;;;0.20;0.20;;;9.50;99.90;;;9.93;100.00;101443.84;4985996;28;20216;-78
2022/04/29 05:24:50;;;;;;;0.20;0.20;;;9.60;99.90;;;10.00;100.00;101440.53;4987074;28;20220;-75
2022/04/29 05:27:47;;;;;;;0.10;0.10;;;9.70;99.90;;;10.04;100.00;101441.50;4952244;28;20591;-75
2022/04/29 05:30:35;;;;;;;0.10;0.10;;;9.80;99.90;;;10.09;100.00;101439.88;4961909;28;20213;-75
2022/04/29 05:33:23;;;;;;;0.10;0.10;;;9.80;99.90;;;10.18;100.00;101445.41;4968463;28;20206;-75
2022/04/29 05:36:12;;;;;;;0.20;0.20;;;9.90;99.90;;;10.22;100.00;101444.69;4957105;28;20713;-74
2022/04/29 05:42:14;;;;;;;0.25;0.25;;;10.00;99.90;;;10.31;100.00;101460.78;4976396;28;20208;-75
2022/04/29 05:44:44;;;;;;;0.10;0.10;;;10.10;99.90;;;10.36;100.00;101461.81;4960239;28;20212;-75
2022/04/29 05:47:16;;;;;;;0.20;0.20;;;10.10;99.90;;;10.41;100.00;101462.84;4974785;28;20228;-75
2022/04/29 05:49:45;;;;;;;0.10;0.10;;;10.20;99.90;;;10.47;100.00;101464.75;4957324;28;20229;-75
2022/04/29 05:52:14;;;;;;;0.17;0.17;;;10.20;99.90;;;10.49;100.00;101465.69;4984202;28;20211;-75
2022/04/29 05:54:46;;;;;;;0.10;0.10;;;10.30;99.90;;;10.53;100.00;101468.47;4990974;28;20232;-75
2022/04/29 05:57:20;;;;;;;0.20;0.20;;;10.30;99.90;;;10.53;100.00;101467.56;4990448;28;20237;-75
2022/04/29 05:59:49;;;;;;;0.20;0.20;;;10.30;99.90;;;10.56;100.00;101470.28;4991048;28;20239;-75
2022/04/29 06:02:43;;;;;;;0.20;0.20;;;10.40;99.90;;;10.54;100.00;101458.78;4976248;28;20217;-75
2022/04/29 06:05:15;;;;;;;0.20;0.20;;;10.40;99.90;;;10.56;100.00;101465.00;4990658;28;20210;-75
2022/04/29 06:07:47;;;;;;;0.20;0.20;;;10.40;99.90;;;10.57;100.00;101462.38;4990784;28;20198;-75
2022/04/29 06:10:23;;;;;;;0.20;0.20;;;10.50;99.90;;;10.56;100.00;101463.25;4974713;28;20209;-75
2022/04/29 06:12:51;;;;;;;0.20;0.20;;;10.50;99.90;;;10.53;100.00;101471.09;4968443;28;20213;-76
2022/04/29 06:15:27;;;;;;;0.10;0.10;;;10.50;99.90;;;10.55;100.00;101471.13;4970105;28;20245;-74
2022/04/29 06:18:32;;;;;;;0.20;0.20;;;10.50;99.90;;;10.50;100.00;101484.25;4966597;28;20205;-75
2022/04/29 06:21:19;;;;;;;0.20;0.20;;;10.50;99.90;;;10.57;100.00;101496.78;4975417;28;20414;-75
2022/04/29 06:23:50;;;;;;;0.10;0.10;;;10.60;99.90;;;10.62;100.00;101498.66;4989475;28;20213;-75
2022/04/29 06:26:20;;;;;;;0.10;0.10;;;10.60;99.90;;;10.61;100.00;101510.09;4989218;28;20233;-74
2022/04/29 06:28:48;;;;;;;0.20;0.20;;;10.60;99.90;;;10.69;100.00;101504.13;4964547;28;20209;-74
2022/04/29 06:31:16;;;;;;;0.20;0.20;;;10.70;99.90;;;10.78;100.00;101500.81;4971573;28;20209;-74
2022/04/29 06:34:03;;;;;;;0.20;0.20;;;10.70;99.90;;;10.89;100.00;101515.22;4967967;28;20233;-75
2022/04/29 06:36:31;;;;;;;0.10;0.10;;;10.80;99.90;;;11.00;100.00;101515.47;4973482;28;20248;-75
2022/04/29 06:39:01;;;;;;;0.20;0.20;;;10.90;99.90;;;11.13;100.00;101526.41;4974498;28;20213;-74
2022/04/29 06:41:55;;;;;;;0.10;0.10;;;11.00;99.90;;;11.39;100.00;101536.72;4974991;28;20197;-74
2022/04/29 06:44:41;;;;;;;0.13;0.13;;;11.10;99.90;;;11.66;100.00;101534.69;4969381;28;20212;-74
2022/04/29 06:47:45;;;;;;;0.20;0.20;;;11.30;99.90;;;11.77;100.00;101497.84;4955062;28;20206;-74
2022/04/29 06:50:31;;;;;;;1.45;0.60;;;11.40;99.90;;;12.04;100.00;101506.41;4966770;28;20213;-74
2022/04/29 06:53:19;;;;;;;0.10;0.10;;;11.60;99.90;;;12.26;100.00;101520.09;4960253;28;20736;-74
2022/04/29 06:55:47;;;;;;;0.10;0.10;;;11.80;99.90;;;12.40;100.00;101507.97;4987073;28;20244;-74
2022/04/29 06:58:15;;;;;;;0.20;0.20;;;12.00;99.90;;;12.47;100.00;101486.88;4973016;28;20205;-75
2022/04/29 07:00:43;;;;;;;0.57;0.57;;;12.10;99.90;;;12.47;100.00;101470.09;4988993;28;20224;-75
2022/04/29 07:03:11;;;;;;;0.15;0.15;;;12.20;99.90;;;12.71;99.96;101462.53;4973049;28;20205;-75
2022/04/29 07:05:41;;;;;;;0.20;0.20;;;12.30;99.90;;;12.74;99.46;101445.78;4984593;28;20233;-76
2022/04/29 07:08:13;;;;;;;0.82;0.82;;;12.40;99.90;;;12.88;97.61;101438.91;4953086;28;20214;-74
2022/04/29 07:11:13;;;;;;;0.10;0.10;;;12.50;99.90;;;13.22;97.22;101431.50;4965520;28;20224;-76
2022/04/29 07:13:44;;;;;;;0.10;0.10;;;12.70;99.90;;;13.34;94.22;101390.06;4986365;28;20217;-76
2022/04/29 07:16:14;;;;;;;0.10;0.10;;;12.90;99.90;;;13.69;93.50;101398.47;4972326;28;20253;-75
2022/04/29 07:19:03;;;;;;;0.20;0.20;;;13.10;99.90;;;13.79;88.12;101322.38;4971642;28;20681;-77
2022/04/29 07:21:32;;;;;;;0.10;0.10;;;13.40;99.90;;;14.07;88.53;101312.88;4968994;28;20205;-75
2022/04/29 07:24:03;;;;;;;0.10;0.10;;;13.60;99.90;;;13.87;88.50;101287.88;4972056;28;20205;-77
2022/04/29 07:26:39;;;;;;;0.10;0.10;;;13.60;99.90;;;13.99;89.54;101294.19;4957166;28;20246;-75
2022/04/29 07:29:12;;;;;;;0.25;0.25;;;;;;;14.11;88.60;101277.44;4971534;28;20209;-75
2022/04/29 07:31:46;;;;;;;0.10;0.10;;;;;;;14.22;86.58;101251.81;4974698;28;20205;-73
2022/04/29 07:43:47;;;;;;;0.10;0.10;;;14.50;99.90;;;14.61;90.86;101274.31;4986011;28;20209;-73
2022/04/29 07:46:16;;;;;;;0.10;0.10;;;14.70;99.90;;;14.56;89.98;101255.66;4991006;28;20229;-73
2022/04/29 07:49:05;;;;;;;0.10;0.10;;;14.60;99.90;;;14.86;91.12;101292.19;4971126;28;20222;-73
2022/04/29 07:51:33;;;;;;;0.20;0.20;;;14.80;99.90;;;14.86;90.20;101267.34;4975541;28;20204;-73
2022/04/29 07:54:02;;;;;;;0.10;0.10;;;14.90;99.90;;;15.16;88.95;101274.56;4973361;28;20213;-72
2022/04/29 07:56:30;;;;;;;0.10;0.10;;;15.20;99.90;;;14.94;87.61;101226.53;4987826;28;20248;-72
2022/04/29 07:59:02;;;;;;;0.10;0.10;;;15.30;99.90;;;14.89;87.84;101209.66;4971667;28;20216;-73
2022/04/29 08:01:33;;;;;;;0.10;0.10;;;15.40;99.90;;;14.94;86.59;101201.69;4969921;28;20669;-77
2022/04/29 08:04:02;;;;;;;0.10;0.10;;;15.50;99.90;;;14.85;87.40;101188.34;4988268;28;20224;-74
2022/04/29 08:06:33;;;;;;;0.20;0.20;;;15.50;99.90;;;14.99;87.11;101199.91;4987182;28;20255;-75
2022/04/29 08:09:21;;;;;;;0.10;0.10;;;15.50;99.90;;;14.99;86.14;101183.94;4983089;28;20240;-74
2022/04/29 08:11:49;;;;;;;0.10;0.10;;;15.70;99.90;;;15.05;86.79;101195.50;4987415;28;20232;-74
2022/04/29 08:14:29;;;;;;;0.10;0.10;;;15.70;99.90;;;15.00;87.88;101199.94;4973679;28;20232;-72
2022/04/29 08:17:41;;;;;;;0.10;0.10;;;15.70;99.90;;;14.96;90.03;101214.13;4966827;28;20567;-73
2022/04/29 08:20:10;;;;;;;0.10;0.10;;;16.00;99.90;;;15.47;91.12;101275.56;4985733;28;20209;-72
2022/04/29 08:22:42;;;;;;;0.22;0.22;;;16.10;99.90;;;15.37;88.12;101221.34;4986160;28;20666;-73
2022/04/29 08:25:11;;;;;;;0.10;0.10;;;16.10;99.90;;;15.44;87.77;101217.78;4984845;28;20214;-73
2022/04/29 08:27:41;;;;;;;0.10;0.10;;;16.10;99.90;;;15.61;89.01;101236.53;4987439;28;20228;-73
2022/04/29 08:30:12;;;;;;;0.10;0.10;;;16.00;99.90;;;15.84;86.23;101216.09;4955198;28;20216;-73
2022/04/29 08:32:45;;;;;;;0.10;0.10;;;16.10;99.90;;;15.77;82.75;101158.31;4987497;28;20205;-73
2022/04/29 08:35:25;;;;;;;0.10;0.10;;;16.20;99.90;;;16.11;83.86;101168.94;4968578;28;20212;-73
2022/04/29 08:37:54;;;;;;;0.10;0.10;;;16.40;99.90;;;16.60;82.41;101189.28;4973315;28;20206;-73
2022/04/29 08:40:25;;;;;;;0.22;0.22;;;16.70;99.90;;;16.42;80.41;101111.03;4952505;28;20206;-75
2022/04/29 08:42:56;;;;;;;0.10;0.10;;;16.90;99.90;;;16.87;81.70;101148.22;4971761;28;20595;-73
2022/04/29 08:45:25;;;;;;;0.00;0.00;;;17.00;99.90;;;17.07;78.65;101102.72;4971373;28;20592;-73
2022/04/29 08:48:12;;;;;;;0.10;0.10;;;17.30;99.90;;;16.86;77.61;101055.63;4972996;28;20205;-73
2022/04/29 08:50:41;;;;;;;0.00;0.00;;;17.20;99.90;;;16.91;74.70;100991.50;4954804;28;20220;-73
2022/04/29 08:53:09;;;;;;;0.00;0.00;;;17.20;99.90;;;16.58;75.90;100948.06;4987173;28;20220;-73
2022/04/29 08:58:37;;;;;;;0.10;0.10;;;17.30;99.90;;;17.51;78.46;101072.06;4967863;28;20209;-73
2022/04/29 09:01:10;;;;;;;0.10;0.10;;;17.70;99.90;;;17.09;77.29;100998.47;4972707;28;20217;-74
2022/04/29 09:03:39;;;;;;;0.10;0.10;;;17.80;99.90;;;17.50;77.81;101043.53;4970298;28;20216;-74
2022/04/29 09:06:07;;;;;;;0.20;0.20;;;17.90;99.90;;;17.26;77.78;101000.09;4970266;28;20233;-76
2022/04/29 09:08:45;;;;;;;0.00;0.00;;;17.80;99.90;;;17.62;79.22;101051.44;4966194;28;20208;-74
2022/04/29 09:11:26;;;;;;;0.00;0.00;;;18.10;99.90;;;17.47;76.46;100971.38;4961364;28;20221;-75
2022/04/29 09:13:54;;;;;;;0.10;0.10;;;18.20;99.90;;;18.23;74.91;101005.31;4966475;28;20205;-76
2022/04/29 09:16:29;;;;;;;0.00;0.00;;;18.60;99.90;;;18.36;76.11;101001.56;4991010;28;20240;-74
2022/04/29 09:18:57;;;;;;;0.10;0.10;;;19.20;99.90;;;18.34;73.66;100946.25;4976655;28;20208;-74
2022/04/29 09:21:28;;;;;;;0.00;0.00;;;19.40;99.90;;;18.47;73.41;100935.31;4990693;28;20213;-74
2022/04/29 09:24:06;;;;;;;0.00;0.00;;;19.60;99.90;;;17.73;71.93;100798.13;4975619;28;20565;-76
2022/04/29 09:27:06;;;;;;;0.17;0.17;;;19.60;99.90;;;18.59;73.38;100922.66;4965053;28;20233;-74
2022/04/29 09:29:59;;;;;;;0.05;0.05;;;19.70;99.90;;;18.44;73.02;100878.25;4974843;28;20210;-76
2022/04/29 09:32:48;;;;;;;0.10;0.10;;;19.70;99.90;;;18.52;69.40;100814.72;4968523;28;20289;-75
2022/04/29 09:35:40;;;;;;;0.00;0.00;;;19.80;99.90;;;18.62;69.09;100808.34;4971542;28;20240;-74
2022/04/29 09:41:00;;;;;;;0.20;0.20;;;20.00;99.90;;;18.59;67.96;100748.53;4975060;28;20289;-75
2022/04/29 09:43:40;;;;;;;0.00;0.00;;;20.00;99.90;;;18.99;70.96;100827.28;4974630;28;20216;-75
2022/04/29 09:46:10;;;;;;;0.10;0.10;;;20.10;99.90;;;19.28;68.61;100807.94;4989396;28;20236;-76
2022/04/29 09:49:04;;;;;;;0.00;0.00;;;20.40;99.90;;;18.75;66.61;100683.94;4991134;28;20212;-75
2022/04/29 09:51:46;;;;;;;0.10;0.10;;;20.60;99.90;;;18.83;66.47;100676.63;4976054;28;20700;-75
2022/04/29 09:54:21;;;;;;;0.00;0.00;;;20.70;99.90;;;19.27;66.17;100730.19;4975925;28;20227;-78
2022/04/29 09:57:24;;;;;;;0.00;0.00;;;20.60;99.90;;;19.56;64.96;100719.75;4975153;28;20236;-75
2022/04/29 09:59:54;;;;;;;0.00;0.00;;;20.80;99.90;;;19.32;62.26;100604.94;4975584;28;20216;-76
2022/04/29 10:02:28;;;;;;;0.05;0.05;;;21.00;99.90;;;19.24;65.60;100637.31;4976429;28;20208;-76
2022/04/29 10:05:02;;;;;;;0.30;0.30;;;21.00;99.90;;;19.46;64.42;100637.69;4980470;28;20212;-74
2022/04/29 10:07:33;;;;;;;0.00;0.00;;;21.30;99.90;;;19.39;64.99;100626.22;4987840;28;20300;-75
2022/04/29 10:10:05;;;;;;;0.00;0.00;;;21.30;99.90;;;19.13;65.35;100565.16;4974814;28;20219;-74
2022/04/29 10:12:34;;;;;;;0.00;0.00;;;21.20;99.90;;;19.64;64.28;100617.63;4975879;28;20220;-75
2022/04/29 10:15:27;;;;;;;0.00;0.00;;;21.50;99.90;;;19.69;64.09;100584.41;4961991;28;20241;-74
2022/04/29 10:21:20;;;;;;;0.00;0.00;;;22.00;99.90;;;20.07;62.15;100559.22;4976755;28;20204;-74
2022/04/29 10:23:54;;;;;;;0.00;0.00;;;22.50;99.90;;;20.02;62.09;100553.09;4976276;28;20216;-74
2022/04/29 10:26:22;;;;;;;0.10;0.10;;;22.20;99.90;;;20.02;64.61;100576.38;4975441;28;20607;-74
2022/04/29 10:28:51;;;;;;;0.13;0.13;;;22.00;99.90;;;20.07;64.67;100572.63;4973559;28;20209;-73
2022/04/29 10:31:21;;;;;;;0.00;0.00;;;21.80;99.90;;;20.51;63.35;100605.44;4972636;28;20212;-74
2022/04/29 10:33:50;;;;;;;0.00;0.00;;;22.00;99.90;;;20.44;63.06;100564.44;4968191;28;20219;-74
2022/04/29 10:36:26;;;;;;;0.00;0.00;;;22.40;99.90;;;20.51;64.87;100575.00;4994908;28;20232;-73
2022/04/29 10:39:01;;;;;;;1.58;1.48;;;22.10;99.90;;;21.41;60.95;100618.84;4990058;28;20217;-74
2022/04/29 10:41:31;;;;;;;0.00;0.00;;;22.30;99.90;;;21.04;59.51;100495.41;4966892;28;20209;-75
2022/04/29 10:44:04;;;;;;;0.00;0.00;;;22.70;99.90;;;20.89;61.55;100501.28;4989286;28;20239;-73
2022/04/29 10:46:41;;;;;;;0.00;0.00;;;22.20;99.90;;;21.35;60.45;100525.75;4974272;28;20224;-74
2022/04/29 10:49:29;;;;;;;0.00;0.00;;;22.30;99.90;;;21.43;60.36;100506.66;4988809;28;20216;-74
2022/04/29 10:52:28;;;;;;;0.00;0.00;;;22.50;99.90;;;21.24;57.72;100406.03;4963528;28;20223;-73
2022/04/29 10:55:05;;;;;;;0.00;0.00;;;22.50;99.90;;;21.45;59.98;100480.59;4973566;28;20215;-75
2022/04/29 10:58:20;;;;;;;0.22;0.22;;;22.50;99.90;;;21.20;60.55;100432.13;4964492;28;20244;-75
2022/04/29 11:01:31;;;;;;;0.00;0.00;;;22.50;99.90;;;20.41;57.63;100268.19;4971903;28;20208;-73
2022/04/29 11:04:00;;;;;;;0.03;0.03;;;22.10;99.90;;;21.21;57.99;100374.69;4974643;28;20228;-76
2022/04/29 11:06:40;;;;;;;0.00;0.00;;;22.70;99.90;;;20.77;54.78;100223.03;4971561;28;20225;-75
2022/04/29 11:09:46;;;;;;;0.20;0.20;;;22.50;99.90;;;20.94;54.48;100228.69;4953732;28;20205;-80
2022/04/29 11:12:37;;;;;;;0.28;0.20;;;22.10;98.90;;;21.72;53.59;100290.31;4973420;28;20212;-75
2022/04/29 11:15:44;;;;;;;0.32;0.17;;;22.60;99.90;;;21.03;54.72;100179.09;4958860;28;20709;-77